createdAt,value
2023-05-08T00:02:26.646Z,100989.73
2023-05-08T00:04:59.551Z,100988.15
2023-05-08T00:07:30.903Z,100990.77
2023-05-08T00:10:04.187Z,100994.33
2023-05-08T00:12:36.925Z,100996.09
2023-05-08T00:15:07.644Z,100988.88
2023-05-08T00:17:36.792Z,100992.15
2023-05-08T00:20:10.951Z,100995.12
2023-05-08T00:22:42.528Z,100996.59
2023-05-08T00:25:17.328Z,101000.40
2023-05-08T00:27:46.518Z,101002.76
2023-05-08T00:30:32.743Z,101005.86
2023-05-08T00:33:05.573Z,101004.89
2023-05-08T00:35:39.809Z,101013.43
2023-05-08T00:38:09.092Z,101013.91
2023-05-08T00:40:46.103Z,101013.41
2023-05-08T00:43:15.595Z,101024.90
2023-05-08T00:45:48.808Z,101025.72
2023-05-08T00:48:18.975Z,101024.09
2023-05-08T00:50:51.523Z,101025.55
2023-05-08T00:53:22.592Z,101024.50
2023-05-08T00:55:52.520Z,101025.17
2023-05-08T00:58:23.020Z,101021.62
2023-05-08T01:00:55.074Z,101019.95
2023-05-08T01:03:35.946Z,101019.87
2023-05-08T01:06:10.769Z,101010.85
2023-05-08T01:08:39.721Z,101012.45
2023-05-08T01:11:30.159Z,101018.98
2023-05-08T01:14:12.361Z,101019.70
2023-05-08T01:17:10.341Z,101023.78
2023-05-08T01:20:09.358Z,101018.66
2023-05-08T01:22:56.870Z,101019.58
2023-05-08T01:26:05.967Z,101019.58
2023-05-08T01:28:58.437Z,101022.42
2023-05-08T01:31:33.713Z,101024.80
2023-05-08T01:34:15.650Z,101021.09
2023-05-08T01:36:52.447Z,101026.94
2023-05-08T01:39:35.502Z,101029.33
2023-05-08T01:42:30.405Z,101029.53
2023-05-08T01:45:01.799Z,101032.02
2023-05-08T01:47:34.746Z,101037.48
2023-05-08T01:50:06.912Z,101035.41
2023-05-08T01:52:49.301Z,101043.41
2023-05-08T01:55:27.151Z,101043.09
2023-05-08T01:57:59.695Z,101037.94
2023-05-08T02:00:32.157Z,101042.94
2023-05-08T02:03:01.929Z,101041.27
2023-05-08T02:05:34.537Z,101049.48
2023-05-08T02:08:02.833Z,101049.05
2023-05-08T02:10:32.908Z,101047.81
2023-05-08T02:13:04.608Z,101047.88
2023-05-08T02:15:38.070Z,101057.72
2023-05-08T02:18:10.371Z,101053.85
2023-05-08T02:20:44.249Z,101052.06
2023-05-08T02:23:17.314Z,101051.43
2023-05-08T02:25:46.639Z,101060.03
2023-05-08T02:28:15.906Z,101055.94
2023-05-08T02:30:51.658Z,101063.83
2023-05-08T02:33:25.260Z,101063.60
2023-05-08T02:35:56.400Z,101062.38
2023-05-08T02:38:25.271Z,101065.92
2023-05-08T02:41:01.976Z,101064.55
2023-05-08T02:43:36.492Z,101063.00
2023-05-08T02:46:13.868Z,101069.16
2023-05-08T02:49:00.823Z,101066.43
2023-05-08T02:52:12.574Z,101066.85
2023-05-08T02:55:33.832Z,101065.77
2023-05-08T02:58:24.179Z,101068.09
2023-05-08T03:00:59.826Z,101071.77
2023-05-08T03:03:49.648Z,101068.64
2023-05-08T03:06:24.146Z,101075.45
2023-05-08T03:08:54.232Z,101081.41
2023-05-08T03:11:28.409Z,101080.50
2023-05-08T03:14:02.761Z,101076.80
2023-05-08T03:16:37.021Z,101090.39
2023-05-08T03:19:34.942Z,101094.15
2023-05-08T03:22:06.383Z,101087.64
2023-05-08T03:24:37.266Z,101093.60
2023-05-08T03:27:05.917Z,101098.70
2023-05-08T03:29:42.123Z,101104.19
2023-05-08T03:32:12.660Z,101107.65
2023-05-08T03:34:48.408Z,101112.84
2023-05-08T03:37:20.166Z,101113.92
2023-05-08T03:39:52.407Z,101109.50
2023-05-08T03:42:24.982Z,101114.28
2023-05-08T03:44:55.841Z,101110.74
2023-05-08T03:47:26.504Z,101113.97
2023-05-08T03:49:57.161Z,101113.64
2023-05-08T03:52:33.823Z,101120.20
2023-05-08T03:58:25.050Z,101127.40
2023-05-08T04:01:27.909Z,101125.55
2023-05-08T04:04:12.015Z,101120.38
2023-05-08T04:07:31.031Z,101130.71
2023-05-08T04:10:37.788Z,101131.64
2023-05-08T04:13:29.579Z,101133.95
2023-05-08T04:16:23.007Z,101134.27
2023-05-08T04:19:02.055Z,101127.23
2023-05-08T04:21:32.150Z,101129.77
2023-05-08T04:24:02.733Z,101131.38
2023-05-08T04:26:34.742Z,101130.27
2023-05-08T04:29:32.103Z,101130.47
2023-05-08T04:32:08.842Z,101135.10
2023-05-08T04:34:47.730Z,101133.23
2023-05-08T04:37:32.207Z,101132.33
2023-05-08T04:40:11.081Z,101140.76
2023-05-08T04:42:50.380Z,101142.38
2023-05-08T04:45:51.330Z,101146.79
2023-05-08T04:48:31.555Z,101153.98
2023-05-08T04:51:07.783Z,101151.83
2023-05-08T04:53:47.318Z,101158.09
2023-05-08T04:56:15.032Z,101151.02
2023-05-08T04:58:55.049Z,101155.27
2023-05-08T05:01:49.563Z,101152.11
2023-05-08T05:04:32.816Z,101154.89
2023-05-08T05:07:31.769Z,101157.23
2023-05-08T05:10:03.314Z,101155.09
2023-05-08T05:12:48.033Z,101160.23
2023-05-08T05:15:32.939Z,101162.05
2023-05-08T05:18:20.731Z,101164.70
2023-05-08T05:20:56.357Z,101166.52
2023-05-08T05:23:56.145Z,101171.12
2023-05-08T05:26:28.412Z,101176.05
2023-05-08T05:29:23.718Z,101173.58
2023-05-08T05:34:40.382Z,101174.52
2023-05-08T05:37:14.796Z,101174.20
2023-05-08T05:39:48.382Z,101177.33
2023-05-08T05:42:18.692Z,101175.42
2023-05-08T05:45:18.862Z,101178.89
2023-05-08T05:47:57.771Z,101177.77
2023-05-08T05:50:52.833Z,101179.30
2023-05-08T05:53:32.111Z,101173.30
2023-05-08T05:56:11.202Z,101173.52
2023-05-08T05:58:44.426Z,101174.27
2023-05-08T06:01:17.519Z,101170.77
2023-05-08T06:03:49.187Z,101172.02
2023-05-08T06:06:43.290Z,101171.19
2023-05-08T06:09:20.958Z,101169.48
2023-05-08T06:12:07.848Z,101172.96
2023-05-08T06:14:48.131Z,101173.33
2023-05-08T06:17:58.451Z,101168.75
2023-05-08T06:20:28.337Z,101166.83
2023-05-08T06:23:12.694Z,101171.93
2023-05-08T06:26:11.031Z,101171.84
2023-05-08T06:28:47.704Z,101170.39
2023-05-08T06:31:27.516Z,101175.17
2023-05-08T06:33:59.415Z,101174.00
2023-05-08T06:36:33.086Z,101169.05
2023-05-08T06:39:12.238Z,101172.54
2023-05-08T06:41:51.497Z,101170.92
2023-05-08T06:44:32.238Z,101180.69
2023-05-08T06:47:03.479Z,101176.52
2023-05-08T06:49:42.670Z,101179.91
2023-05-08T06:52:49.490Z,101183.54
2023-05-08T06:55:50.085Z,101183.92
2023-05-08T06:58:39.354Z,101187.49
2023-05-08T07:01:15.026Z,101183.57
2023-05-08T07:04:54.768Z,101182.05
2023-05-08T07:11:21.505Z,101179.03
2023-05-08T07:13:59.867Z,101176.10
2023-05-08T07:17:30.865Z,101175.10
2023-05-08T07:21:00.748Z,101169.89
2023-05-08T07:24:06.937Z,101168.67
2023-05-08T07:26:37.852Z,101169.14
2023-05-08T07:30:05.328Z,101168.16
2023-05-08T07:32:55.860Z,101178.69
2023-05-08T07:35:31.005Z,101178.82
2023-05-08T07:38:08.488Z,101178.98
2023-05-08T07:41:00.967Z,101178.91
2023-05-08T07:43:41.234Z,101174.67
2023-05-08T07:46:30.630Z,101179.88
2023-05-08T07:49:08.051Z,101177.96
2023-05-08T07:51:45.035Z,101175.89
2023-05-08T07:54:16.907Z,101188.88
2023-05-08T07:56:56.331Z,101186.58
2023-05-08T07:59:30.958Z,101180.91
2023-05-08T08:02:09.972Z,101179.89
2023-05-08T08:04:42.779Z,101167.63
2023-05-08T08:07:23.402Z,101167.88
2023-05-08T08:10:04.198Z,101162.66
2023-05-08T08:12:38.733Z,101166.90
2023-05-08T08:15:28.292Z,101165.05
2023-05-08T08:18:02.758Z,101166.17
2023-05-08T08:20:49.307Z,101169.02
2023-05-08T08:23:19.803Z,101170.06
2023-05-08T08:25:56.081Z,101161.88
2023-05-08T08:28:29.260Z,101162.20
2023-05-08T08:31:02.591Z,101154.06
2023-05-08T08:33:42.596Z,101154.71
2023-05-08T08:37:12.292Z,101158.04
2023-05-08T08:39:45.921Z,101149.97
2023-05-08T08:42:25.067Z,101145.80
2023-05-08T08:44:56.067Z,101146.15
2023-05-08T08:47:33.954Z,101150.80
2023-05-08T08:50:40.281Z,101148.34
2023-05-08T08:53:45.574Z,101139.09
2023-05-08T08:56:24.982Z,101145.38
2023-05-08T08:59:05.450Z,101143.18
2023-05-08T09:02:28.981Z,101146.85
2023-05-08T09:05:05.142Z,101146.32
2023-05-08T09:07:42.935Z,101148.40
2023-05-08T09:10:26.463Z,101138.91
2023-05-08T09:13:28.463Z,101140.52
2023-05-08T09:16:18.648Z,101151.20
2023-05-08T09:19:20.989Z,101148.94
2023-05-08T09:22:49.025Z,101145.96
2023-05-08T09:25:19.902Z,101142.88
2023-05-08T09:27:56.878Z,101143.33
2023-05-08T09:30:30.537Z,101142.42
2023-05-08T09:33:13.977Z,101144.20
2023-05-08T09:36:33.442Z,101141.69
2023-05-08T09:39:13.469Z,101138.77
2023-05-08T09:42:00.918Z,101140.27
2023-05-08T09:44:53.971Z,101131.60
2023-05-08T09:47:25.873Z,101133.05
2023-05-08T09:50:26.793Z,101134.81
2023-05-08T09:52:58.497Z,101139.95
2023-05-08T09:55:51.433Z,101142.10
2023-05-08T09:58:32.477Z,101139.13
2023-05-08T10:01:12.366Z,101139.06
2023-05-08T10:03:52.722Z,101132.67
2023-05-08T10:06:55.904Z,101131.00
2023-05-08T10:09:51.020Z,101132.55
2023-05-08T10:12:48.886Z,101124.42
2023-05-08T10:15:27.004Z,101123.55
2023-05-08T10:18:07.790Z,101125.61
2023-05-08T10:20:48.936Z,101128.16
2023-05-08T10:23:21.167Z,101124.34
2023-05-08T10:26:21.141Z,101131.61
2023-05-08T10:29:00.626Z,101132.79
2023-05-08T10:31:41.228Z,101134.36
2023-05-08T10:34:21.305Z,101131.80
2023-05-08T10:37:03.278Z,101132.77
2023-05-08T10:40:06.656Z,101124.88
2023-05-08T10:42:41.212Z,101122.77
2023-05-08T10:45:55.151Z,101119.43
2023-05-08T10:49:08.523Z,101121.90
2023-05-08T10:52:50.015Z,101120.06
2023-05-08T10:55:42.124Z,101122.52
2023-05-08T10:58:49.298Z,101119.81
2023-05-08T11:02:22.303Z,101116.48
2023-05-08T11:05:16.738Z,101113.02
2023-05-08T11:08:23.739Z,101111.88
2023-05-08T11:11:43.137Z,101110.45
2023-05-08T11:14:17.955Z,101113.45
2023-05-08T11:17:09.986Z,101113.52
2023-05-08T11:19:56.746Z,101105.60
2023-05-08T11:22:33.628Z,101105.30
2023-05-08T11:25:44.161Z,101100.27
2023-05-08T11:28:16.086Z,101092.66
2023-05-08T11:30:54.049Z,101095.80
2023-05-08T11:33:44.404Z,101094.23
2023-05-08T11:36:40.143Z,101088.56
2023-05-08T11:39:20.940Z,101090.11
2023-05-08T11:42:38.175Z,101086.86
2023-05-08T11:45:16.342Z,101088.04
2023-05-08T11:47:58.711Z,101081.04
2023-05-08T11:50:31.567Z,101090.06
2023-05-08T11:53:22.585Z,101089.33
2023-05-08T11:55:55.869Z,101095.27
2023-05-08T11:59:24.388Z,101091.81
2023-05-08T12:02:09.499Z,101088.67
2023-05-08T12:05:28.413Z,101086.30
2023-05-08T12:08:02.862Z,101082.20
2023-05-08T12:11:00.310Z,101077.58
2023-05-08T12:13:44.113Z,101078.97
2023-05-08T12:16:16.590Z,101081.66
2023-05-08T12:18:54.283Z,101077.80
2023-05-08T12:22:00.002Z,101074.84
2023-05-08T12:24:35.313Z,101070.43
2023-05-08T12:27:15.440Z,101072.61
2023-05-08T12:30:18.599Z,101065.15
2023-05-08T12:32:55.017Z,101061.36
2023-05-08T12:35:30.826Z,101060.58
2023-05-08T12:38:17.697Z,101059.95
2023-05-08T12:41:05.998Z,101064.09
2023-05-08T12:44:28.870Z,101064.64
2023-05-08T12:47:13.628Z,101067.91
2023-05-08T12:49:50.658Z,101063.30
2023-05-08T12:53:42.537Z,101057.71
2023-05-08T12:56:23.940Z,101049.65
2023-05-08T12:59:04.321Z,101053.04
2023-05-08T13:01:51.415Z,101050.37
2023-05-08T13:05:09.193Z,101054.70
2023-05-08T13:08:19.295Z,101056.09
2023-05-08T13:11:17.276Z,101055.54
2023-05-08T13:13:56.233Z,101046.43
2023-05-08T13:16:53.499Z,101041.83
2023-05-08T13:19:31.371Z,101047.95
2023-05-08T13:22:12.435Z,101048.89
2023-05-08T13:24:51.392Z,101052.24
2023-05-08T13:27:45.912Z,101050.39
2023-05-08T13:30:51.489Z,101053.91
2023-05-08T13:34:18.757Z,101057.48
2023-05-08T13:37:51.354Z,101043.84
2023-05-08T13:41:42.935Z,101049.73
2023-05-08T13:44:46.382Z,101049.57
2023-05-08T13:48:13.378Z,101054.95
2023-05-08T13:51:09.488Z,101044.95
2023-05-08T13:54:06.812Z,101045.56
2023-05-08T13:57:34.462Z,101042.20
2023-05-08T14:00:43.318Z,101045.13
2023-05-08T14:04:04.621Z,101045.95
2023-05-08T14:07:34.233Z,101045.77
2023-05-08T14:10:29.211Z,101050.02
2023-05-08T14:13:34.232Z,101053.54
2023-05-08T14:16:16.262Z,101052.98
2023-05-08T14:19:04.807Z,101048.69
2023-05-08T14:21:54.887Z,101048.63
2023-05-08T14:24:38.413Z,101050.79
2023-05-08T14:32:34.006Z,101046.79
2023-05-08T14:35:22.670Z,101054.91
2023-05-08T14:38:23.866Z,101049.94
2023-05-08T14:41:26.645Z,101047.50
2023-05-08T14:44:05.205Z,101053.04
2023-05-08T14:47:38.497Z,101050.73
2023-05-08T14:50:27.727Z,101050.45
2023-05-08T14:53:18.539Z,101049.42
2023-05-08T14:59:31.748Z,101039.33
2023-05-08T15:07:05.013Z,101041.02
2023-05-08T15:09:52.906Z,101048.54
2023-05-08T15:30:03.190Z,101045.65
2023-05-08T16:08:57.726Z,101070.14
2023-05-08T16:12:24.283Z,101064.64
2023-05-08T16:23:30.408Z,101070.02
2023-05-08T16:26:11.193Z,101069.95
2023-05-08T16:29:07.227Z,101075.59
2023-05-08T16:32:02.755Z,101078.70
2023-05-08T16:34:38.871Z,101081.21
2023-05-08T16:37:29.498Z,101083.97
2023-05-08T16:40:13.668Z,101088.35
2023-05-08T16:43:50.528Z,101089.71
2023-05-08T16:47:14.599Z,101085.54
2023-05-08T16:49:54.701Z,101084.55
2023-05-08T16:52:35.517Z,101087.58
2023-05-08T16:55:13.712Z,101090.14
2023-05-08T16:59:05.153Z,101087.59
2023-05-08T17:02:21.700Z,101097.08
2023-05-08T17:05:18.792Z,101106.70
2023-05-08T17:23:06.565Z,101133.45
2023-05-08T17:26:12.205Z,101136.87
2023-05-08T17:29:03.360Z,101137.64
2023-05-08T17:31:48.265Z,101129.20
2023-05-08T17:34:55.205Z,101146.06
2023-05-08T17:38:18.413Z,101150.70
2023-05-08T17:41:25.580Z,101150.20
2023-05-08T17:45:04.872Z,101163.17
2023-05-08T17:47:54.633Z,101163.59
2023-05-08T17:52:37.559Z,101172.81
2023-05-08T17:55:31.772Z,101175.08
2023-05-08T18:28:37.192Z,101213.81
2023-05-08T18:31:24.105Z,101210.16
2023-05-08T18:38:25.458Z,101220.89
2023-05-08T18:41:49.247Z,101223.17
2023-05-08T18:44:28.955Z,101222.45
2023-05-08T18:47:59.494Z,101222.30
2023-05-08T18:50:44.772Z,101222.08
2023-05-08T18:53:25.760Z,101221.66
2023-05-08T18:57:14.902Z,101223.32
2023-05-08T19:00:20.253Z,101226.98
2023-05-08T19:03:20.996Z,101227.14
2023-05-08T19:09:09.548Z,101232.18
2023-05-08T19:12:03.174Z,101230.55
2023-05-08T19:14:37.473Z,101234.26
2023-05-08T19:17:55.659Z,101233.77
2023-05-08T19:25:15.484Z,101232.83
2023-05-08T19:28:07.578Z,101230.84
2023-05-08T19:31:34.782Z,101230.18
2023-05-08T19:35:23.630Z,101229.00
2023-05-08T19:39:25.977Z,101231.42
2023-05-08T19:42:15.984Z,101227.45
2023-05-08T19:50:03.565Z,101237.90
2023-05-08T19:52:50.086Z,101236.07
2023-05-08T19:55:32.733Z,101236.82
2023-05-08T19:58:33.428Z,101237.27
2023-05-08T20:01:40.520Z,101241.18
2023-05-08T20:05:18.747Z,101238.13
2023-05-08T20:08:00.206Z,101242.60
2023-05-08T20:10:52.020Z,101243.20
2023-05-08T20:13:35.223Z,101242.39
2023-05-08T20:16:29.786Z,101241.08
2023-05-08T20:19:28.431Z,101238.10
2023-05-08T20:30:43.499Z,101237.02
2023-05-08T20:40:58.207Z,101239.83
2023-05-08T20:43:51.949Z,101239.25
2023-05-08T20:46:44.471Z,101240.95
2023-05-08T20:49:28.830Z,101237.89
2023-05-08T20:52:15.585Z,101240.55
2023-05-08T20:55:45.190Z,101241.88
2023-05-08T20:58:42.712Z,101238.18
2023-05-08T21:01:21.139Z,101243.20
2023-05-08T21:05:21.791Z,101243.61
2023-05-08T21:08:01.472Z,101243.13
2023-05-08T21:11:13.775Z,101240.10
2023-05-08T21:14:00.278Z,101241.31
2023-05-08T21:16:35.010Z,101244.69
2023-05-08T21:19:15.728Z,101243.52
2023-05-08T21:22:01.826Z,101244.03
2023-05-08T21:24:36.121Z,101243.84
2023-05-08T21:27:15.785Z,101241.09
2023-05-08T21:30:00.237Z,101240.76
2023-05-08T21:32:35.436Z,101244.67
2023-05-08T21:35:14.250Z,101243.08
2023-05-08T21:38:36.417Z,101242.90
2023-05-08T21:41:09.444Z,101242.31
2023-05-08T21:43:49.084Z,101239.77
2023-05-08T21:46:46.065Z,101240.94
2023-05-08T21:49:25.344Z,101243.45
2023-05-08T21:52:01.333Z,101243.13
2023-05-08T21:54:46.568Z,101239.27
2023-05-08T21:57:43.252Z,101237.63
2023-05-08T22:00:22.035Z,101237.42
2023-05-08T22:02:57.774Z,101241.56
2023-05-08T22:05:38.439Z,101240.71
2023-05-08T22:08:39.309Z,101240.79
2023-05-08T22:11:09.500Z,101240.01
2023-05-08T22:13:40.358Z,101246.31
2023-05-08T22:16:26.109Z,101242.43
2023-05-08T22:19:08.282Z,101239.63
2023-05-08T22:21:44.371Z,101239.80
2023-05-08T22:24:20.502Z,101239.54
2023-05-08T22:27:02.339Z,101234.43
2023-05-08T22:30:56.622Z,101231.77
2023-05-08T22:33:34.108Z,101235.60
2023-05-08T22:36:12.996Z,101228.79
2023-05-08T22:38:46.260Z,101234.09
2023-05-08T22:41:23.273Z,101232.19
2023-05-08T22:44:34.908Z,101236.08
2023-05-08T22:47:19.072Z,101228.91
2023-05-08T22:50:00.823Z,101225.23
2023-05-08T22:52:34.999Z,101227.02
2023-05-08T22:55:22.564Z,101223.70
2023-05-08T22:58:17.011Z,101220.40
2023-05-08T23:00:56.529Z,101222.30
2023-05-08T23:03:33.747Z,101216.35
2023-05-08T23:06:11.507Z,101219.00
2023-05-08T23:08:46.394Z,101216.83
2023-05-08T23:11:27.316Z,101217.04
2023-05-08T23:14:35.414Z,101220.42
2023-05-08T23:20:43.141Z,101225.99
2023-05-08T23:23:34.054Z,101228.80
2023-05-08T23:26:09.198Z,101225.70
2023-05-08T23:28:40.630Z,101227.81
2023-05-08T23:31:27.611Z,101227.92
2023-05-08T23:34:03.981Z,101225.80
2023-05-08T23:36:48.376Z,101225.02
2023-05-08T23:39:51.636Z,101235.86
2023-05-08T23:43:13.529Z,101232.77
2023-05-08T23:45:48.947Z,101237.52
2023-05-08T23:48:25.882Z,101235.63
2023-05-08T23:50:59.939Z,101234.98
2023-05-08T23:53:38.501Z,101236.97
2023-05-08T23:56:37.796Z,101236.93
2023-05-08T23:59:12.885Z,101240.20
